Time;durP1;ratioP1;P1;durP2;ratioP2;P2;SDS_P1;SDS_P2;PMS_P1;PMS_P2;Temp;Humidity;BMP_temperature;BMP_pressure;BME280_temperature;BME280_humidity;BME280_pressure;Samples;Min_cycle;Max_cycle;Signal;HPM_P1;HPM_P2
2023/09/29 04:00:21;;;;;;;18.60;9.40;;;;;;;11.98;70.82;99709.33;86078;1274;107727;31
2023/09/29 04:02:50;;;;;;;22.20;10.60;;;;;;;11.96;70.87;99709.40;104312;1273;96665;-78
2023/09/29 04:05:25;;;;;;;20.60;10.40;;;;;;;11.96;70.95;99711.93;104040;1279;96629;-77
2023/09/29 04:07:54;;;;;;;21.10;10.30;;;;;;;11.96;70.86;99712.64;104203;1270;109891;-76
2023/09/29 04:10:22;;;;;;;20.90;10.40;;;;;;;11.95;70.98;99714.83;104344;1270;96652;-77
2023/09/29 04:12:50;;;;;;;20.60;10.30;;;;;;;11.93;70.99;99714.26;104091;1276;107981;-76
2023/09/29 04:15:20;;;;;;;21.30;10.10;;;;;;;11.87;70.93;99721.19;104117;1271;97556;-76
2023/09/29 04:17:48;;;;;;;21.00;10.60;;;;;;;11.83;70.96;99725.17;104125;1275;96629;-75
2023/09/29 04:20:18;;;;;;;23.00;11.10;;;;;;;11.79;71.03;99723.35;104067;1273;110724;-76
2023/09/29 04:22:46;;;;;;;23.90;10.90;;;;;;;11.79;70.95;99727.81;104092;1276;97044;-77
2023/09/29 04:25:16;;;;;;;22.30;11.10;;;;;;;11.78;71.04;99725.73;104103;1273;107586;-75
2023/09/29 04:27:44;;;;;;;22.00;10.50;;;;;;;11.79;71.03;99726.41;104164;1276;96748;-77
2023/09/29 04:30:12;;;;;;;20.70;10.30;;;;;;;11.78;71.12;99725.05;104747;1270;96624;-77
2023/09/29 04:32:41;;;;;;;20.20;10.20;;;;;;;11.77;71.08;99724.02;104405;1270;109760;-77
2023/09/29 04:35:13;;;;;;;21.70;10.00;;;;;;;11.76;71.04;99726.02;104361;1270;97842;-77
2023/09/29 04:37:41;;;;;;;22.40;10.90;;;;;;;11.76;70.95;99730.66;104326;1273;107764;-77
2023/09/29 04:40:09;;;;;;;24.30;11.20;;;;;;;11.75;71.13;99730.17;103963;1271;96760;-75
2023/09/29 04:42:37;;;;;;;22.80;11.00;;;;;;;11.75;71.13;99726.76;103996;1273;96647;-77
2023/09/29 04:45:06;;;;;;;21.20;10.10;;;;;;;11.76;71.14;99722.14;104311;1270;109431;-77
2023/09/29 04:47:36;;;;;;;21.70;9.80;;;;;;;11.76;71.26;99719.64;104147;1276;97881;-76
2023/09/29 04:50:10;;;;;;;19.90;10.80;;;;;;;11.77;71.17;99723.48;104535;1274;107265;-74
2023/09/29 04:52:38;;;;;;;20.60;10.30;;;;;;;11.78;71.19;99723.94;104192;1270;96621;-75
2023/09/29 04:55:06;;;;;;;21.20;9.90;;;;;;;11.80;71.23;99719.58;104637;1270;96631;-76
2023/09/29 04:57:34;;;;;;;24.40;10.00;;;;;;;11.82;71.27;99722.93;104381;1273;110465;-74
2023/09/29 05:00:11;;;;;;;22.20;10.30;;;;;;;11.85;71.38;99720.25;104422;1273;96554;-78
2023/09/29 05:02:39;;;;;;;19.90;10.40;;;;;;;11.89;71.38;99728.48;104003;1273;108097;-78
2023/09/29 05:05:09;;;;;;;21.30;10.60;;;;;;;11.90;71.32;99734.52;104378;1271;96654;-78
2023/09/29 05:07:44;;;;;;;20.70;9.90;;;;;;;11.89;71.40;99733.85;105012;1274;97954;-77
2023/09/29 05:10:18;;;;;;;21.00;10.30;;;;;;;11.91;71.41;99726.64;104045;1270;109609;-77
2023/09/29 05:12:46;;;;;;;;;;;;;;;11.95;71.50;99729.04;104319;1273;96799;-78
2023/09/29 05:15:22;;;;;;;19.90;9.60;;;;;;;11.91;71.53;99723.23;104088;1285;107720;-77
2023/09/29 05:18:08;;;;;;;18.40;9.80;;;;;;;11.94;71.76;99723.41;104117;1274;96723;-76
2023/09/29 05:20:36;;;;;;;18.60;9.40;;;;;;;12.00;71.67;99723.39;104308;1271;96650;-77
2023/09/29 05:23:04;;;;;;;24.90;10.40;;;;;;;12.02;71.59;99728.20;104373;1273;109082;-77
2023/09/29 05:25:32;;;;;;;24.80;10.00;;;;;;;12.07;71.64;99729.50;104371;1276;96620;-77
2023/09/29 05:27:59;;;;;;;19.40;9.40;;;;;;;12.13;71.61;99733.21;107268;1270;107662;-77
2023/09/29 05:30:30;;;;;;;21.80;10.40;;;;;;;12.16;71.64;99733.88;107152;1270;95016;-77
2023/09/29 05:32:58;;;;;;;21.10;10.40;;;;;;;12.22;71.86;99733.23;104864;1270;97967;-77
2023/09/29 05:35:26;;;;;;;19.50;9.60;;;;;;;12.29;71.75;99735.66;104377;1276;110225;-77
2023/09/29 05:37:55;;;;;;;20.70;9.60;;;;;;;12.31;71.70;99738.48;107441;1269;95230;-77
2023/09/29 05:40:23;;;;;;;20.70;10.60;;;;;;;12.36;71.82;99737.63;107147;1271;107267;-77
2023/09/29 05:42:51;;;;;;;18.10;9.00;;;;;;;12.42;71.89;99733.69;107459;1270;94883;-77
2023/09/29 05:45:20;;;;;;;22.40;10.10;;;;;;;12.48;71.81;99736.23;105848;1270;96620;-77
2023/09/29 05:47:51;;;;;;;20.20;9.30;;;;;;;12.55;71.97;99736.34;104421;1276;108727;-76
2023/09/29 05:50:21;;;;;;;20.20;9.70;;;;;;;12.61;72.02;99729.36;104382;1273;96634;-76
2023/09/29 05:52:49;;;;;;;24.80;10.80;;;;;;;12.69;72.11;99734.32;104380;1270;107498;-76
2023/09/29 05:55:37;;;;;;;20.20;10.00;;;;;;;12.76;72.17;99732.54;104213;1273;97553;-79
2023/09/29 05:58:05;;;;;;;22.30;10.60;;;;;;;12.83;72.25;99733.13;104259;1273;96657;-78
2023/09/29 06:00:37;;;;;;;18.70;8.70;;;;;;;12.89;72.32;99733.95;104435;1273;109857;-78
2023/09/29 06:03:08;;;;;;;20.40;10.40;;;;;;;12.96;72.45;99740.20;104180;1287;96630;-77
2023/09/29 06:05:39;;;;;;;22.40;10.10;;;;;;;13.04;72.47;99746.58;104133;1293;107617;-77
2023/09/29 06:08:07;;;;;;;22.40;10.70;;;;;;;13.12;72.49;99744.42;103883;1276;96760;-77
2023/09/29 06:10:35;;;;;;;20.70;10.60;;;;;;;13.20;72.52;99749.70;104073;1270;96619;-77
2023/09/29 06:13:03;;;;;;;21.40;10.10;;;;;;;13.28;72.61;99750.75;104276;1270;109942;-78
2023/09/29 06:15:32;;;;;;;23.00;11.90;;;;;;;13.35;72.61;99749.37;104212;1270;96653;-76
2023/09/29 06:18:00;;;;;;;20.90;10.30;;;;;;;13.42;72.53;99748.50;104263;1271;107076;-77
2023/09/29 06:20:29;;;;;;;22.50;11.00;;;;;;;13.50;72.74;99745.59;104158;1270;96646;-78
2023/09/29 06:22:57;;;;;;;20.70;10.60;;;;;;;13.59;72.83;99745.46;104270;1273;96650;-77
2023/09/29 06:25:25;;;;;;;22.60;10.70;;;;;;;13.67;72.83;99749.48;104260;1273;110037;-79
2023/09/29 06:27:53;;;;;;;22.10;9.90;;;;;;;13.76;72.78;99752.80;104026;1277;97658;-78
2023/09/29 06:30:23;;;;;;;19.30;9.60;;;;;;;13.83;72.83;99751.86;104323;1274;107221;-78
2023/09/29 06:32:52;;;;;;;23.70;10.30;;;;;;;13.91;72.95;99748.84;104251;1277;98049;-77
2023/09/29 06:35:20;;;;;;;21.30;10.00;;;;;;;13.99;72.89;99753.21;104347;1270;96672;-80
2023/09/29 06:37:48;;;;;;;21.30;10.30;;;;;;;14.07;72.96;99750.95;104163;1274;108440;-77
2023/09/29 06:40:17;;;;;;;18.70;9.20;;;;;;;14.17;73.02;99752.56;104397;1277;96618;-77
2023/09/29 06:42:45;;;;;;;20.10;9.50;;;;;;;14.25;73.07;99753.16;104049;1276;107447;-79
2023/09/29 06:45:13;;;;;;;22.10;9.30;;;;;;;14.33;73.02;99757.36;103861;1270;97633;-78
2023/09/29 06:47:41;;;;;;;22.80;9.70;;;;;;;14.40;72.98;99761.48;104359;1274;96707;-78
2023/09/29 06:50:10;;;;;;;18.70;9.20;;;;;;;14.46;73.01;99766.05;104321;1270;109084;-77
2023/09/29 06:52:39;;;;;;;20.20;9.70;;;;;;;14.53;73.13;99765.27;104196;1270;97629;-77
2023/09/29 06:55:07;;;;;;;19.90;9.20;;;;;;;14.61;73.10;99766.63;104249;1273;109019;-77
2023/09/29 06:57:35;;;;;;;22.60;9.10;;;;;;;14.69;73.18;99764.98;104224;1271;96561;-77
2023/09/29 07:00:09;;;;;;;21.50;9.40;;;;;;;14.76;73.15;99765.31;103938;1276;96631;-78
2023/09/29 07:02:37;;;;;;;21.00;9.80;;;;;;;14.83;73.27;99764.03;104144;1275;109266;-77
2023/09/29 07:05:08;;;;;;;19.50;9.90;;;;;;;14.92;73.40;99764.23;103930;1276;96803;-78
2023/09/29 07:07:40;;;;;;;22.70;9.40;;;;;;;15.01;73.40;99764.78;104155;1274;108079;-77
2023/09/29 07:10:09;;;;;;;18.80;10.00;;;;;;;15.08;73.32;99766.02;104250;1273;96791;-76
2023/09/29 07:12:37;;;;;;;18.50;9.50;;;;;;;15.17;73.39;99763.16;104347;1270;96558;-78
2023/09/29 07:15:10;;;;;;;19.50;9.40;;;;;;;15.25;73.38;99765.19;103873;1276;109792;-77
2023/09/29 07:17:38;;;;;;;18.90;9.00;;;;;;;15.34;73.46;99769.27;104165;1273;96740;-78
2023/09/29 07:20:09;;;;;;;17.20;9.20;;;;;;;15.43;73.42;99768.89;104243;1287;108069;-77
2023/09/29 07:22:39;;;;;;;19.90;9.40;;;;;;;15.51;73.36;99769.66;104332;1276;96709;-77
2023/09/29 07:25:08;;;;;;;20.60;8.60;;;;;;;15.55;73.37;99772.39;104282;1270;96638;-78
2023/09/29 07:27:40;;;;;;;19.60;9.20;;;;;;;15.61;73.37;99772.08;104301;1271;109321;-77
2023/09/29 07:30:08;;;;;;;16.60;8.20;;;;;;;15.67;73.43;99776.94;103858;1280;97341;-78
2023/09/29 07:32:41;;;;;;;18.70;8.80;;;;;;;15.75;73.43;99777.05;103804;1279;106382;-77
2023/09/29 07:35:10;;;;;;;18.80;8.70;;;;;;;15.84;73.50;99775.03;104238;1270;96711;-80
2023/09/29 07:37:38;;;;;;;17.20;8.70;;;;;;;15.90;73.29;99775.05;104220;1276;96569;-77
2023/09/29 07:40:09;;;;;;;20.70;8.90;;;;;;;15.97;73.30;99775.23;104342;1271;109775;-78
2023/09/29 07:42:37;;;;;;;17.60;8.10;;;;;;;16.04;73.30;99779.84;104298;1274;97568;-76
2023/09/29 07:45:07;;;;;;;18.10;8.50;;;;;;;16.10;73.27;99778.07;104092;1276;108365;-76
2023/09/29 07:47:35;;;;;;;19.30;8.50;;;;;;;16.21;73.52;99777.02;104200;1274;97574;-77
2023/09/29 07:50:10;;;;;;;17.90;9.10;;;;;;;16.29;73.50;99777.05;104223;1276;96614;-78
2023/09/29 07:52:38;;;;;;;18.70;8.50;;;;;;;16.39;73.45;99778.15;104153;1271;109488;-77
2023/09/29 07:55:08;;;;;;;17.10;8.50;;;;;;;16.44;73.43;99780.09;103891;1271;97553;-79
2023/09/29 07:57:36;;;;;;;18.40;8.70;;;;;;;16.50;73.44;99781.13;104168;1277;106265;-79
2023/09/29 08:00:12;;;;;;;18.10;8.80;;;;;;;16.58;73.57;99780.86;103987;1276;96681;-78
2023/09/29 08:02:43;;;;;;;16.40;7.60;;;;;;;16.66;73.63;99782.08;104140;1276;97945;-77
2023/09/29 08:05:14;;;;;;;18.50;8.70;;;;;;;16.75;73.50;99783.15;104079;1271;109591;-78
2023/09/29 08:07:42;;;;;;;16.60;8.10;;;;;;;16.80;73.24;99781.41;104050;1271;96544;-77
2023/09/29 08:10:13;;;;;;;21.40;8.40;;;;;;;16.85;73.50;99782.81;103983;1271;105933;-77
2023/09/29 08:12:41;;;;;;;19.00;8.70;;;;;;;16.93;73.42;99784.56;103991;1291;96634;-78
2023/09/29 08:15:13;;;;;;;18.80;9.40;;;;;;;17.00;73.48;99788.36;104192;1277;96630;-77
2023/09/29 08:17:44;;;;;;;19.20;8.90;;;;;;;17.09;73.41;99787.86;104233;1271;110028;-78
2023/09/29 08:20:14;;;;;;;19.30;8.80;;;;;;;17.18;73.58;99785.48;104398;1272;96631;-78
2023/09/29 08:22:43;;;;;;;16.40;7.90;;;;;;;17.24;73.47;99787.60;104110;1274;107359;-77
2023/09/29 08:25:12;;;;;;;15.00;8.00;;;;;;;17.30;73.24;99786.81;103946;1280;96631;-77
2023/09/29 08:27:40;;;;;;;16.10;7.70;;;;;;;17.33;73.33;99787.02;104119;1271;97353;-78
2023/09/29 08:30:10;;;;;;;17.50;8.70;;;;;;;17.38;73.27;99787.66;103964;1272;109577;-77
2023/09/29 08:32:40;;;;;;;17.30;7.70;;;;;;;17.41;73.31;99789.91;104400;1274;96635;-77
2023/09/29 08:35:13;;;;;;;18.70;7.70;;;;;;;17.45;73.24;99788.31;104218;1277;107491;-77
2023/09/29 08:37:43;;;;;;;17.00;7.90;;;;;;;17.50;73.05;99791.14;104274;1275;96702;-78
2023/09/29 08:40:16;;;;;;;19.10;8.00;;;;;;;17.53;73.17;99788.16;104535;1271;96730;-77
2023/09/29 08:42:49;;;;;;;17.10;8.00;;;;;;;17.60;73.14;99787.35;104494;1276;109722;-75
2023/09/29 08:45:19;;;;;;;16.30;7.60;;;;;;;17.67;73.11;99785.01;104162;1270;96759;-77
2023/09/29 08:47:50;;;;;;;17.00;7.50;;;;;;;17.74;73.04;99783.52;104037;1276;107089;-74
2023/09/29 08:50:24;;;;;;;21.60;8.00;;;;;;;17.85;73.19;99783.45;104180;1273;96689;-78
2023/09/29 08:52:54;;;;;;;14.50;7.20;;;;;;;17.93;73.19;99781.10;104392;1273;96630;-76
2023/09/29 08:55:26;;;;;;;15.30;7.40;;;;;;;18.02;73.17;99778.88;104232;1273;109459;-77
2023/09/29 08:57:55;;;;;;;18.20;8.60;;;;;;;18.07;73.09;99779.81;104352;1276;96714;-78
2023/09/29 09:00:27;;;;;;;17.90;7.80;;;;;;;18.10;72.85;99782.61;104399;1277;107613;-77
2023/09/29 09:02:58;;;;;;;15.20;6.70;;;;;;;18.14;72.85;99782.04;104276;1276;97546;-79
2023/09/29 09:05:26;;;;;;;22.30;7.60;;;;;;;18.18;72.82;99780.45;104359;1276;96634;-78
2023/09/29 09:07:59;;;;;;;15.40;7.40;;;;;;;18.22;72.74;99776.81;104031;1275;109995;-78
2023/09/29 09:10:33;;;;;;;15.20;7.30;;;;;;;18.26;72.82;99775.91;104249;1273;97544;-76
2023/09/29 09:13:02;;;;;;;15.80;7.40;;;;;;;18.29;72.67;99773.71;103993;1279;107454;-77
2023/09/29 09:15:30;;;;;;;17.10;6.90;;;;;;;18.32;72.65;99772.66;104289;1277;97947;-77
2023/09/29 09:17:59;;;;;;;14.60;6.70;;;;;;;18.36;72.72;99772.48;104208;1274;96647;-77
2023/09/29 09:20:30;;;;;;;16.30;7.50;;;;;;;18.39;72.68;99770.56;103989;1279;110605;-77
2023/09/29 09:23:03;;;;;;;16.70;8.00;;;;;;;18.48;72.69;99769.25;104241;1270;96634;-77
2023/09/29 09:25:37;;;;;;;17.90;7.00;;;;;;;18.53;72.68;99766.06;103994;1277;107681;-80
2023/09/29 09:28:06;;;;;;;16.90;7.70;;;;;;;18.63;72.81;99766.58;104141;1270;96596;-77
2023/09/29 09:30:36;;;;;;;19.90;7.10;;;;;;;18.70;72.47;99766.61;104246;1272;96615;-77
2023/09/29 09:33:05;;;;;;;24.00;8.20;;;;;;;18.72;72.41;99759.73;104333;1272;109539;-77
2023/09/29 09:35:37;;;;;;;16.90;7.40;;;;;;;18.78;72.49;99762.06;104409;1273;96655;-77
2023/09/29 09:38:07;;;;;;;17.30;8.00;;;;;;;18.84;72.24;99767.57;104190;1273;107671;-78
2023/09/29 09:40:36;;;;;;;13.60;6.50;;;;;;;18.89;72.26;99762.95;104252;1271;96547;-77
2023/09/29 09:43:07;;;;;;;16.30;7.20;;;;;;;18.91;72.15;99761.53;104199;1276;98164;-77
2023/09/29 09:45:39;;;;;;;16.40;7.10;;;;;;;18.94;72.11;99764.32;104173;1270;110314;-76
2023/09/29 09:48:16;;;;;;;14.30;7.40;;;;;;;18.99;71.97;99761.35;103931;1277;96631;-77
2023/09/29 09:50:47;;;;;;;16.40;7.70;;;;;;;19.01;72.07;99759.34;103797;1276;107694;-77
2023/09/29 09:53:20;;;;;;;16.70;7.20;;;;;;;19.02;72.09;99757.41;104234;1271;96642;-77
2023/09/29 09:56:10;;;;;;;16.40;7.20;;;;;;;19.08;72.08;99760.66;104060;1275;97495;-77
2023/09/29 09:58:38;;;;;;;16.00;7.40;;;;;;;19.17;71.95;99761.27;104201;1274;109586;-76
2023/09/29 10:04:04;;;;;;;15.60;7.10;;;;;;;19.33;71.81;99757.85;102029;1297;652437;-78
2023/09/29 10:06:35;;;;;;;16.50;7.50;;;;;;;19.38;71.65;99759.88;105006;1268;94406;-79
2023/09/29 10:09:07;;;;;;;17.00;6.90;;;;;;;19.39;71.44;99755.30;104632;1271;94386;-77
2023/09/29 10:11:34;;;;;;;18.30;7.80;;;;;;;19.41;71.40;99754.73;105639;1253;106151;-78
2023/09/29 10:14:08;;;;;;;17.40;7.20;;;;;;;19.49;71.68;99752.85;105223;1262;94276;-78
2023/09/29 10:16:35;;;;;;;14.90;6.60;;;;;;;19.56;71.52;99745.70;105317;1261;166765;-79
2023/09/29 10:19:11;;;;;;;17.00;7.50;;;;;;;19.63;71.48;99747.48;105488;1260;94306;-77
2023/09/29 10:21:43;;;;;;;17.40;7.90;;;;;;;19.68;71.23;99747.57;105681;1257;94255;-78
2023/09/29 10:24:26;;;;;;;16.80;7.20;;;;;;;19.71;71.09;99746.21;105992;1257;107724;-77
2023/09/29 10:26:52;;;;;;;14.30;6.70;;;;;;;19.77;71.06;99744.14;105944;1266;95291;-78
2023/09/29 10:29:20;;;;;;;19.50;6.30;;;;;;;19.82;71.02;99741.52;105622;1259;95257;-78
2023/09/29 10:31:55;;;;;;;18.40;7.40;;;;;;;19.86;70.92;99739.52;105281;1260;95259;-78
2023/09/29 10:34:24;;;;;;;13.20;6.40;;;;;;;19.92;70.89;99743.02;105467;1258;95258;-78
2023/09/29 10:36:55;;;;;;;18.70;7.20;;;;;;;19.96;70.84;99741.47;105903;1255;108003;-78
2023/09/29 10:39:26;;;;;;;15.90;6.90;;;;;;;19.98;70.66;99742.11;105611;1256;95289;-77
2023/09/29 10:42:38;;;;;;;16.10;6.70;;;;;;;20.07;70.77;99741.17;102880;1283;651707;-78
2023/09/29 10:45:06;;;;;;;16.70;7.30;;;;;;;20.12;70.59;99741.23;105121;1265;95242;-75
2023/09/29 10:47:33;;;;;;;17.40;6.70;;;;;;;20.15;70.39;99739.18;105035;1262;94470;-78
2023/09/29 10:50:13;;;;;;;18.20;6.90;;;;;;;20.16;70.12;99733.96;105052;1264;106968;-77
2023/09/29 10:52:40;;;;;;;15.40;6.40;;;;;;;20.23;70.13;99730.96;105095;1263;95485;-78
2023/09/29 10:55:12;;;;;;;15.20;6.40;;;;;;;20.28;69.99;99724.83;105165;1263;236075;-78
2023/09/29 10:57:42;;;;;;;14.50;7.20;;;;;;;20.32;69.72;99730.90;105567;1259;94273;-78
2023/09/29 11:00:12;;;;;;;13.50;6.60;;;;;;;20.40;70.02;99724.73;105033;1263;94353;-78
2023/09/29 11:02:39;;;;;;;12.30;5.90;;;;;;;20.42;69.88;99718.39;105046;1263;94348;-78
2023/09/29 11:05:10;;;;;;;15.60;6.80;;;;;;;20.43;69.69;99719.30;105345;1260;94250;-78
2023/09/29 11:07:47;;;;;;;17.40;6.80;;;;;;;20.45;69.61;99715.17;105051;1263;107595;-78
2023/09/29 11:10:14;;;;;;;16.60;6.90;;;;;;;20.46;69.51;99710.95;105358;1262;95305;-78
2023/09/29 11:12:45;;;;;;;16.00;6.90;;;;;;;20.49;69.52;99707.66;105148;1262;95618;-78
2023/09/29 11:15:14;;;;;;;14.50;6.60;;;;;;;20.57;69.45;99705.61;105348;1261;108355;-78
2023/09/29 11:17:48;;;;;;;13.00;6.30;;;;;;;20.63;69.42;99706.10;105411;1257;95259;-78
2023/09/29 11:20:35;;;;;;;17.90;7.70;;;;;;;20.67;69.04;99701.70;105259;1257;107531;-77
2023/09/29 11:23:11;;;;;;;16.70;6.90;;;;;;;20.74;69.17;99697.76;105464;1257;95323;-79
2023/09/29 11:25:50;;;;;;;15.10;6.40;;;;;;;20.80;69.20;99693.15;105598;1266;96194;-77
2023/09/29 11:28:18;;;;;;;15.80;6.80;;;;;;;20.81;69.06;99690.48;105697;1254;108639;-78
2023/09/29 11:30:44;;;;;;;14.80;7.20;;;;;;;20.80;68.88;99685.73;105393;1259;95336;-79
2023/09/29 11:33:12;;;;;;;17.60;6.80;;;;;;;20.82;69.00;99684.09;105562;1253;96046;-77
2023/09/29 11:35:45;;;;;;;14.10;6.30;;;;;;;20.86;68.64;99680.82;105362;1257;95250;-79
2023/09/29 11:38:33;;;;;;;15.90;6.70;;;;;;;20.92;68.61;99677.70;105511;1259;95168;-78
2023/09/29 11:41:17;;;;;;;16.70;6.20;;;;;;;20.96;68.14;99675.25;102256;1297;636049;-78
2023/09/29 11:43:45;;;;;;;15.20;7.00;;;;;;;20.98;68.35;99674.71;105449;1257;94316;-78
2023/09/29 11:46:21;;;;;;;14.00;6.60;;;;;;;20.97;68.23;99673.50;105236;1260;94386;-78
2023/09/29 11:48:49;;;;;;;17.70;6.40;;;;;;;20.98;68.06;99667.89;105069;1260;107317;-78
2023/09/29 11:51:21;;;;;;;16.00;6.30;;;;;;;21.00;68.00;99668.33;105073;1257;95330;-78
2023/09/29 11:53:50;;;;;;;14.80;6.50;;;;;;;21.00;67.87;99669.61;104973;1272;176313;-78
2023/09/29 11:56:25;;;;;;;15.40;6.20;;;;;;;21.02;67.81;99664.30;105228;1257;94222;-77
2023/09/29 11:58:54;;;;;;;16.50;6.20;;;;;;;21.03;67.81;99662.48;105343;1260;94264;-79
2023/09/29 12:01:22;;;;;;;15.30;6.00;;;;;;;21.04;67.61;99659.48;105746;1259;107740;-77
2023/09/29 12:03:52;;;;;;;16.30;6.30;;;;;;;21.09;67.48;99661.77;105434;1260;94698;-78
2023/09/29 12:06:20;;;;;;;15.90;5.70;;;;;;;21.11;67.39;99656.28;105366;1258;107854;-78
2023/09/29 12:08:51;;;;;;;16.60;6.00;;;;;;;21.14;67.06;99656.40;105034;1260;96372;-78
2023/09/29 12:11:24;;;;;;;17.20;6.00;;;;;;;21.18;66.97;99653.10;105395;1256;95242;-78
2023/09/29 12:13:54;;;;;;;12.50;5.40;;;;;;;21.17;66.90;99656.09;105269;1256;108105;-78
2023/09/29 12:16:22;;;;;;;16.10;6.50;;;;;;;21.18;66.63;99653.48;105581;1259;95622;-78
2023/09/29 12:18:50;;;;;;;23.20;5.90;;;;;;;21.18;66.72;99654.17;105635;1253;107962;-78
2023/09/29 12:21:18;;;;;;;14.10;6.50;;;;;;;21.22;66.69;99653.16;105010;1254;96180;-78
2023/09/29 12:23:51;;;;;;;13.20;5.90;;;;;;;21.28;66.76;99651.45;105493;1259;95327;-78
2023/09/29 12:26:20;;;;;;;13.80;6.30;;;;;;;21.32;66.62;99642.42;105593;1254;108290;-78
2023/09/29 12:28:50;;;;;;;17.50;5.90;;;;;;;21.36;66.46;99644.33;105525;1254;95240;-77
2023/09/29 12:31:25;;;;;;;15.30;6.00;;;;;;;21.36;66.19;99639.25;105239;1256;107054;-78
2023/09/29 12:33:56;;;;;;;14.90;6.30;;;;;;;21.37;66.15;99638.58;105140;1260;95359;-78
2023/09/29 12:36:24;;;;;;;14.10;5.80;;;;;;;21.37;66.04;99639.32;105559;1256;95670;-78
2023/09/29 12:38:52;;;;;;;13.80;5.90;;;;;;;21.36;65.80;99636.88;105514;1256;106979;-76
2023/09/29 12:41:22;;;;;;;13.50;6.10;;;;;;;21.36;66.10;99636.54;105368;1260;96079;-77
2023/09/29 12:43:51;;;;;;;13.60;5.90;;;;;;;21.37;65.57;99631.41;105397;1268;107988;-78
2023/09/29 12:46:25;;;;;;;14.70;5.90;;;;;;;21.41;65.48;99633.96;105343;1266;96184;-77
2023/09/29 12:48:53;;;;;;;14.00;6.50;;;;;;;21.44;65.39;99631.70;105483;1256;95239;-78
2023/09/29 12:51:22;;;;;;;11.50;6.40;;;;;;;21.43;65.39;99629.44;105154;1257;108511;-78
2023/09/29 12:53:55;;;;;;;15.80;6.60;;;;;;;21.40;65.26;99623.98;105098;1262;95259;-78
2023/09/29 12:56:25;;;;;;;19.50;7.90;;;;;;;21.40;65.42;99622.70;105386;1257;107876;-79
2023/09/29 12:58:55;;;;;;;15.30;6.30;;;;;;;21.41;65.20;99618.81;105268;1260;95469;-77
2023/09/29 13:01:25;;;;;;;14.70;6.40;;;;;;;21.40;65.06;99618.23;105603;1259;95211;-78
2023/09/29 13:03:55;;;;;;;14.80;5.90;;;;;;;21.39;64.99;99614.52;105520;1260;108628;-78
2023/09/29 13:06:24;;;;;;;15.00;6.60;;;;;;;21.39;64.77;99616.16;105656;1260;95805;-78
2023/09/29 13:08:53;;;;;;;13.40;6.20;;;;;;;21.38;64.76;99610.50;105614;1260;107312;-78
2023/09/29 13:11:22;;;;;;;13.60;6.20;;;;;;;21.42;64.49;99610.25;105363;1259;96236;-78
2023/09/29 13:13:49;;;;;;;14.40;6.20;;;;;;;21.50;64.37;99613.40;105430;1257;95252;-78
2023/09/29 13:16:18;;;;;;;18.30;7.30;;;;;;;21.56;64.57;99616.52;105455;1257;108236;-79
2023/09/29 13:18:48;;;;;;;16.50;6.90;;;;;;;21.54;64.45;99610.73;105481;1257;95190;-78
2023/09/29 13:21:18;;;;;;;11.60;6.20;;;;;;;21.53;64.33;99608.16;105600;1258;106877;-78
2023/09/29 13:23:47;;;;;;;13.80;5.90;;;;;;;21.52;64.42;99607.21;105118;1260;95259;-78
2023/09/29 13:26:15;;;;;;;16.20;6.80;;;;;;;21.50;63.95;99608.70;105283;1261;95345;-77
2023/09/29 13:28:45;;;;;;;13.60;6.50;;;;;;;21.48;64.12;99603.86;105200;1267;107559;-79
2023/09/29 13:31:13;;;;;;;16.50;6.30;;;;;;;21.47;64.15;99602.35;105423;1260;95720;-78
2023/09/29 13:33:41;;;;;;;15.10;6.70;;;;;;;21.48;63.86;99596.66;105431;1267;110382;-78
2023/09/29 13:36:09;;;;;;;17.00;6.30;;;;;;;21.49;63.80;99597.78;105238;1260;95346;-77
2023/09/29 13:38:41;;;;;;;13.80;6.20;;;;;;;21.49;63.77;99598.48;105134;1260;95345;-77
2023/09/29 13:41:09;;;;;;;14.00;5.90;;;;;;;21.47;63.71;99596.19;105684;1257;108734;-79
2023/09/29 13:43:40;;;;;;;17.70;9.40;;;;;;;21.45;63.58;99593.41;105153;1267;95272;-78
2023/09/29 13:46:09;;;;;;;18.30;8.40;;;;;;;21.47;63.64;99592.95;105420;1260;108111;-77
2023/09/29 13:48:42;;;;;;;20.20;8.20;;;;;;;21.45;63.34;99588.30;105362;1259;96657;-79
2023/09/29 13:51:11;;;;;;;18.40;7.60;;;;;;;21.42;63.35;99587.99;105461;1259;95770;-77
2023/09/29 13:53:42;;;;;;;15.00;7.10;;;;;;;21.44;62.94;99586.00;105345;1267;108853;-78
2023/09/29 13:56:11;;;;;;;15.90;6.70;;;;;;;21.48;63.29;99579.27;105469;1256;95493;-78
2023/09/29 13:58:40;;;;;;;13.40;6.20;;;;;;;21.47;63.06;99577.04;105546;1259;107162;-78
2023/09/29 14:01:13;;;;;;;18.80;8.00;;;;;;;21.45;62.84;99575.28;105225;1260;95309;-79
2023/09/29 14:03:41;;;;;;;14.10;6.40;;;;;;;21.43;63.11;99570.14;105600;1259;95753;-78
2023/09/29 14:06:14;;;;;;;15.10;6.70;;;;;;;21.42;62.70;99569.27;105553;1260;107957;-78
2023/09/29 14:08:42;;;;;;;;;;;;;;;21.44;62.74;99562.79;105448;1258;95712;-78
2023/09/29 14:11:10;;;;;;;14.80;6.20;;;;;;;21.40;62.64;99560.81;105491;1259;108057;-79
2023/09/29 14:13:38;;;;;;;15.90;6.10;;;;;;;21.38;62.75;99560.41;105625;1257;96267;-78
2023/09/29 14:16:10;;;;;;;13.80;6.30;;;;;;;21.36;62.68;99557.94;105174;1264;96136;-79
2023/09/29 14:18:38;;;;;;;15.00;6.50;;;;;;;21.35;62.57;99559.23;105223;1260;108681;-78
2023/09/29 14:21:08;;;;;;;15.10;6.60;;;;;;;21.34;62.56;99554.13;105005;1269;95250;-80
2023/09/29 14:23:39;;;;;;;14.30;6.40;;;;;;;21.34;62.43;99553.08;105435;1257;107321;-75
2023/09/29 14:26:09;;;;;;;15.50;7.70;;;;;;;21.33;62.41;99552.13;105357;1258;95307;-77
2023/09/29 14:28:50;;;;;;;16.00;6.90;;;;;;;21.34;62.23;99552.36;105382;1257;95198;-77
2023/09/29 14:31:31;;;;;;;13.90;6.50;;;;;;;21.32;62.26;99553.11;105243;1267;108628;-77
2023/09/29 14:34:09;;;;;;;17.90;7.20;;;;;;;21.28;62.37;99554.61;105238;1257;95487;-77
2023/09/29 14:37:19;;;;;;;14.50;6.70;;;;;;;21.25;62.14;99552.09;105375;1254;106743;-77
2023/09/29 14:40:21;;;;;;;;;;;;;;;;;;;;;
2023/09/29 14:43:18;;;;;;;;;;;;;;;;;;;;;
2023/09/29 14:46:13;;;;;;;19.20;7.50;;;;;;;21.09;62.05;99547.48;105539;1260;110373;-77
2023/09/29 14:49:17;;;;;;;26.10;10.20;;;;;;;21.05;62.08;99539.20;105630;1259;96282;-77
2023/09/29 14:51:53;;;;;;;27.90;12.00;;;;;;;21.03;61.82;99540.40;105267;1261;107707;-81
2023/09/29 14:54:38;;;;;;;36.00;13.90;;;;;;;20.99;61.72;99534.84;105177;1254;95343;-77
2023/09/29 14:57:47;;;;;;;;;;;;;;;;;;;;;
2023/09/29 15:01:18;;;;;;;27.80;11.40;;;;;;;20.88;61.55;99532.84;105108;1267;109191;-75
2023/09/29 15:03:55;;;;;;;22.60;7.80;;;;;;;20.86;61.95;99535.03;105463;1258;96943;-77
2023/09/29 15:06:37;;;;;;;24.30;9.70;;;;;;;20.81;61.66;99537.66;105468;1258;107645;-76
2023/09/29 15:09:16;;;;;;;17.50;7.10;;;;;;;20.78;61.59;99536.23;105384;1254;95203;-77
2023/09/29 15:15:47;;;;;;;101.30;40.70;;;;;;;20.69;61.43;99531.05;105240;1264;108651;-75
2023/09/29 15:18:26;;;;;;;34.00;12.60;;;;;;;20.63;61.43;99526.66;105672;1257;96434;-77
2023/09/29 15:21:40;;;;;;;21.60;9.70;;;;;;;20.55;61.54;99525.08;105631;1260;107890;-75
2023/09/29 15:24:55;;;;;;;;;;;;;;;;;;;;;
2023/09/29 15:28:38;;;;;;;16.90;7.10;;;;;;;20.35;61.57;99518.05;105586;1257;95854;-76
2023/09/29 15:39:31;;;;;;;17.20;6.80;;;;;;;20.04;61.54;99518.27;105287;1268;109178;-77
2023/09/29 15:43:12;;;;;;;17.80;7.00;;;;;;;19.95;61.70;99519.41;104881;1270;96464;-77
2023/09/29 15:46:12;;;;;;;16.50;7.60;;;;;;;19.83;61.72;99520.23;104521;1279;95315;-78
2023/09/29 15:49:12;;;;;;;18.60;7.70;;;;;;;19.73;61.67;99519.42;104882;1264;108731;-76
2023/09/29 15:52:31;;;;;;;;;;;;;;;;;;;;;
2023/09/29 15:55:59;;;;;;;19.40;7.40;;;;;;;19.54;61.79;99521.59;105227;1268;109015;-77
2023/09/29 15:59:04;;;;;;;;;;;;;;;;;;;;;
2023/09/29 16:02:43;;;;;;;19.50;8.30;;;;;;;19.31;61.90;99516.55;106231;1269;94245;-79
2023/09/29 16:05:37;;;;;;;19.60;9.00;;;;;;;19.22;61.87;99515.01;106056;1267;108158;-76